Time;durP1;ratioP1;P1;durP2;ratioP2;P2;SDS_P1;SDS_P2;PMS_P1;PMS_P2;Temp;Humidity;BMP_temperature;BMP_pressure;BME280_temperature;BME280_humidity;BME280_pressure;Samples;Min_cycle;Max_cycle;Signal;HPM_P1;HPM_P2
2022/07/18 00:00:10;;;;;;;2.35;0.50;;;13.30;91.70;;;;;;5001257;28;20367;-70
2022/07/18 00:02:37;;;;;;;1.17;0.50;;;13.50;91.00;;;;;;5000235;28;20037;-68
2022/07/18 00:05:05;;;;;;;3.33;0.50;;;13.50;90.50;;;;;;5001157;28;20022;-71
2022/07/18 00:07:33;;;;;;;0.90;0.50;;;13.60;89.00;;;;;;4999785;28;20029;-69
2022/07/18 00:10:00;;;;;;;4.43;0.70;;;13.60;87.20;;;;;;5000985;28;20026;-70
2022/07/18 00:12:28;;;;;;;2.05;0.90;;;13.50;87.00;;;;;;5000612;28;20101;-68
2022/07/18 00:14:55;;;;;;;2.90;0.60;;;13.50;86.30;;;;;;5000660;28;20030;-73
2022/07/18 00:17:23;;;;;;;2.03;0.40;;;13.60;86.50;;;;;;4997907;28;20072;-69
2022/07/18 00:19:50;;;;;;;2.55;0.60;;;13.60;86.20;;;;;;5000552;28;20088;-69
2022/07/18 00:22:17;;;;;;;0.65;0.50;;;13.70;86.10;;;;;;5000719;28;20020;-70
2022/07/18 00:24:45;;;;;;;1.55;0.40;;;13.70;85.50;;;;;;5000661;28;20026;-69
2022/07/18 00:27:12;;;;;;;4.57;0.60;;;13.70;84.50;;;;;;5000809;28;20029;-68
2022/07/18 00:29:39;;;;;;;2.72;0.90;;;13.70;84.10;;;;;;4999537;28;20034;-69
2022/07/18 00:32:08;;;;;;;1.88;0.70;;;13.70;83.40;;;;;;5000662;28;20022;-69
2022/07/18 00:34:36;;;;;;;4.13;0.90;;;13.70;83.10;;;;;;5000578;28;20550;-70
2022/07/18 00:37:03;;;;;;;2.03;0.70;;;13.70;83.80;;;;;;4998606;28;20372;-72
2022/07/18 00:39:31;;;;;;;2.22;0.57;;;13.70;83.10;;;;;;5000536;28;20018;-71
2022/07/18 00:41:59;;;;;;;2.00;0.50;;;13.70;82.10;;;;;;4998173;28;20025;-72
2022/07/18 00:44:30;;;;;;;0.40;0.40;;;13.70;81.90;;;;;;5000071;28;20113;-70
2022/07/18 00:47:00;;;;;;;0.80;0.50;;;13.70;81.60;;;;;;5001056;28;20675;-69
2022/07/18 00:49:29;;;;;;;2.55;0.70;;;13.70;82.20;;;;;;5001404;28;20040;-69
2022/07/18 00:51:56;;;;;;;2.50;0.68;;;13.90;81.80;;;;;;5001314;28;20470;-69
2022/07/18 00:54:23;;;;;;;1.63;0.60;;;13.80;81.80;;;;;;5001367;28;20379;-69
2022/07/18 00:56:51;;;;;;;2.95;0.73;;;13.90;80.70;;;;;;5000596;28;20056;-69
2022/07/18 00:59:19;;;;;;;1.77;0.50;;;13.90;79.90;;;;;;5000063;28;20084;-71
2022/07/18 01:01:47;;;;;;;1.20;0.50;;;14.00;79.10;;;;;;4999783;28;20114;-70
2022/07/18 01:04:21;;;;;;;2.45;0.77;;;14.00;79.10;;;;;;5001173;28;20137;-71
2022/07/18 01:06:49;;;;;;;1.05;0.57;;;14.00;78.80;;;;;;5000401;28;20030;-70
2022/07/18 01:09:18;;;;;;;2.55;0.60;;;14.00;79.20;;;;;;5000943;28;20034;-70
2022/07/18 01:11:46;;;;;;;0.65;0.43;;;14.00;79.50;;;;;;4998833;28;20046;-69
2022/07/18 01:14:14;;;;;;;3.30;0.55;;;14.10;80.60;;;;;;5001301;28;20113;-69
2022/07/18 01:16:41;;;;;;;1.00;0.55;;;14.20;80.40;;;;;;5001246;28;20014;-72
2022/07/18 01:19:10;;;;;;;0.93;0.50;;;14.20;78.90;;;;;;5002065;28;20022;-69
2022/07/18 01:21:39;;;;;;;3.40;0.65;;;14.30;78.80;;;;;;5004752;28;20030;-70
2022/07/18 01:24:06;;;;;;;1.98;0.70;;;14.30;78.00;;;;;;5004597;28;20054;-71
2022/07/18 01:26:34;;;;;;;1.60;0.50;;;14.30;78.70;;;;;;5004288;28;20028;-72
2022/07/18 01:29:01;;;;;;;1.23;0.40;;;14.50;79.30;;;;;;5004425;28;20386;-73
2022/07/18 01:31:33;;;;;;;0.55;0.50;;;14.50;78.30;;;;;;5004991;28;20033;-71
2022/07/18 01:34:01;;;;;;;0.95;0.40;;;14.60;78.80;;;;;;5004731;28;20017;-69
2022/07/18 01:36:28;;;;;;;2.25;0.57;;;14.70;78.60;;;;;;5004775;28;20122;-69
2022/07/18 01:38:55;;;;;;;0.95;0.60;;;14.70;77.50;;;;;;5002813;28;20025;-69
2022/07/18 01:41:23;;;;;;;0.70;0.70;;;14.70;78.00;;;;;;5004150;28;20021;-70
2022/07/18 01:43:50;;;;;;;1.05;0.90;;;14.80;78.40;;;;;;5004047;28;20482;-69
2022/07/18 01:46:17;;;;;;;1.30;0.50;;;14.90;77.40;;;;;;5004040;28;20050;-68
2022/07/18 01:48:45;;;;;;;0.82;0.40;;;14.80;77.40;;;;;;5004082;28;20466;-71
2022/07/18 01:51:13;;;;;;;0.80;0.40;;;14.90;77.60;;;;;;5003204;28;20104;-71
2022/07/18 01:53:41;;;;;;;1.25;0.45;;;14.90;78.20;;;;;;5002855;28;20498;-70
2022/07/18 01:56:12;;;;;;;1.20;0.38;;;15.00;78.20;;;;;;5002614;28;20022;-70
2022/07/18 01:58:40;;;;;;;1.13;0.40;;;15.10;78.90;;;;;;5002461;28;20041;-70
2022/07/18 02:01:07;;;;;;;1.63;0.40;;;15.30;77.20;;;;;;5003952;28;20076;-69
2022/07/18 02:03:34;;;;;;;1.73;0.40;;;15.40;77.90;;;;;;5004107;28;20099;-69
2022/07/18 02:06:02;;;;;;;0.80;0.40;;;15.50;78.20;;;;;;5004561;28;20025;-70
2022/07/18 02:08:30;;;;;;;1.52;0.40;;;15.70;78.00;;;;;;5003219;28;20030;-69
2022/07/18 02:10:57;;;;;;;1.33;0.50;;;15.70;78.60;;;;;;5003176;28;20018;-69
2022/07/18 02:13:24;;;;;;;0.32;0.32;;;15.80;78.40;;;;;;5004109;28;20045;-70
2022/07/18 02:15:55;;;;;;;1.63;0.47;;;15.80;78.60;;;;;;5003949;28;20031;-70
2022/07/18 02:18:22;;;;;;;1.08;0.50;;;15.90;78.50;;;;;;5004381;28;20381;-69
2022/07/18 02:20:50;;;;;;;0.80;0.40;;;15.90;77.50;;;;;;5003543;28;20026;-69
2022/07/18 02:23:17;;;;;;;2.45;0.45;;;15.80;77.50;;;;;;5004181;28;20025;-70
2022/07/18 02:25:44;;;;;;;0.40;0.40;;;15.80;77.30;;;;;;5003723;28;20113;-70
2022/07/18 02:28:11;;;;;;;3.22;0.55;;;15.80;76.10;;;;;;5002001;28;20026;-72
2022/07/18 02:30:39;;;;;;;1.75;0.88;;;15.70;76.20;;;;;;5002881;28;20076;-70
2022/07/18 02:33:06;;;;;;;3.28;0.50;;;15.80;77.10;;;;;;5003503;28;20386;-71
2022/07/18 02:35:33;;;;;;;0.85;0.40;;;15.90;76.40;;;;;;5003883;28;20026;-68
2022/07/18 02:38:01;;;;;;;1.58;0.40;;;15.90;76.50;;;;;;5002335;28;20049;-71
2022/07/18 02:40:28;;;;;;;1.17;0.40;;;16.10;75.50;;;;;;5002509;28;20025;-70
2022/07/18 02:42:55;;;;;;;0.70;0.50;;;16.30;75.10;;;;;;5001984;28;20045;-69
2022/07/18 02:45:23;;;;;;;1.73;0.60;;;16.40;72.60;;;;;;5002074;28;20025;-70
2022/07/18 02:47:50;;;;;;;1.30;0.45;;;16.50;73.10;;;;;;5001877;28;20040;-74
2022/07/18 02:50:17;;;;;;;2.90;0.57;;;16.60;73.70;;;;;;5001855;28;20014;-69
2022/07/18 02:52:45;;;;;;;0.60;0.40;;;16.90;71.50;;;;;;5001589;28;20025;-71
2022/07/18 02:55:14;;;;;;;0.98;0.40;;;17.20;70.80;;;;;;5002606;28;20108;-70
2022/07/18 02:57:41;;;;;;;0.68;0.32;;;17.50;70.10;;;;;;5001934;28;20052;-70
2022/07/18 03:00:12;;;;;;;3.25;0.77;;;17.50;69.00;;;;;;5001800;28;20422;-68
2022/07/18 03:02:39;;;;;;;0.70;0.40;;;17.80;68.60;;;;;;5002526;28;20022;-69
2022/07/18 03:05:07;;;;;;;1.90;0.60;;;18.10;66.20;;;;;;4999232;28;20529;-69
2022/07/18 03:07:35;;;;;;;1.52;0.40;;;18.00;67.70;;;;;;5001953;28;20036;-68
2022/07/18 03:10:03;;;;;;;1.67;0.60;;;18.30;67.00;;;;;;5001624;28;20036;-70
2022/07/18 03:12:30;;;;;;;1.45;0.93;;;18.50;65.10;;;;;;5001959;28;20495;-70
2022/07/18 03:14:58;;;;;;;2.15;0.60;;;18.30;63.80;;;;;;5001607;28;20063;-70
2022/07/18 03:17:25;;;;;;;2.05;0.55;;;18.40;66.30;;;;;;5001333;28;20350;-69
2022/07/18 03:19:52;;;;;;;1.42;0.50;;;18.40;64.50;;;;;;5000856;28;20912;-73
2022/07/18 03:22:19;;;;;;;2.35;0.70;;;18.70;65.00;;;;;;5001206;28;20006;-70
2022/07/18 03:24:47;;;;;;;2.25;0.40;;;19.00;64.30;;;;;;5001624;28;20029;-69
2022/07/18 03:27:14;;;;;;;2.10;0.60;;;19.20;62.80;;;;;;5001449;28;20014;-68
2022/07/18 03:29:41;;;;;;;0.95;0.70;;;19.50;63.00;;;;;;5001529;28;20033;-69
2022/07/18 03:32:08;;;;;;;1.48;0.50;;;19.70;62.40;;;;;;5004199;28;20013;-70
2022/07/18 03:34:36;;;;;;;1.30;0.85;;;19.80;61.70;;;;;;5002604;28;20076;-70
2022/07/18 03:37:03;;;;;;;2.97;1.15;;;19.90;60.00;;;;;;4996304;28;20024;-69
2022/07/18 03:39:30;;;;;;;1.33;0.57;;;20.20;60.30;;;;;;4990789;28;20026;-67
2022/07/18 03:41:58;;;;;;;3.00;0.50;;;20.40;58.90;;;;;;4997266;28;20033;-69
2022/07/18 03:44:25;;;;;;;2.10;0.60;;;20.70;58.60;;;;;;5000591;28;20014;-71
2022/07/18 03:46:53;;;;;;;2.35;0.75;;;21.10;58.50;;;;;;5001247;28;20149;-73
2022/07/18 03:49:21;;;;;;;1.02;0.52;;;21.50;57.80;;;;;;5003604;28;20038;-77
2022/07/18 03:51:48;;;;;;;2.30;0.60;;;21.70;56.40;;;;;;4998764;28;20034;-72
2022/07/18 03:54:16;;;;;;;1.02;0.50;;;21.90;56.90;;;;;;5002595;28;20030;-71
2022/07/18 03:56:43;;;;;;;1.63;0.60;;;22.00;55.90;;;;;;4999138;28;20482;-73
2022/07/18 03:59:10;;;;;;;1.15;0.50;;;22.10;57.00;;;;;;4999146;28;20109;-73
2022/07/18 04:01:38;;;;;;;0.98;0.45;;;22.20;55.50;;;;;;5001165;28;20029;-72
2022/07/18 04:04:05;;;;;;;2.40;0.50;;;22.10;56.20;;;;;;5000621;28;20072;-72
2022/07/18 04:06:32;;;;;;;0.85;0.40;;;22.30;55.70;;;;;;5000619;28;20021;-71
2022/07/18 04:08:59;;;;;;;0.88;0.40;;;21.90;54.60;;;;;;5002530;28;20103;-74
2022/07/18 04:11:27;;;;;;;0.80;0.40;;;21.90;54.70;;;;;;5001001;28;20022;-72
2022/07/18 04:13:55;;;;;;;2.78;0.47;;;21.70;53.70;;;;;;5000254;28;20026;-71
2022/07/18 04:16:23;;;;;;;4.53;1.48;;;21.40;55.20;;;;;;5000473;28;20018;-71
2022/07/18 04:18:50;;;;;;;2.80;0.80;;;21.30;55.60;;;;;;5002834;28;20444;-73
2022/07/18 04:21:17;;;;;;;3.60;0.57;;;20.90;56.50;;;;;;4997749;28;20074;-76
2022/07/18 04:23:45;;;;;;;3.45;0.75;;;20.30;56.70;;;;;;5002348;28;20053;-72
2022/07/18 04:26:12;;;;;;;2.83;0.60;;;19.50;57.60;;;;;;5014643;28;20516;-74
2022/07/18 04:28:40;;;;;;;2.92;0.60;;;18.90;58.50;;;;;;5002038;28;20398;-72
2022/07/18 04:31:07;;;;;;;2.05;0.50;;;18.40;59.30;;;;;;5001877;28;20022;-70
2022/07/18 04:33:34;;;;;;;2.00;0.50;;;17.90;59.70;;;;;;5001043;28;20026;-72
2022/07/18 04:36:02;;;;;;;2.22;0.68;;;17.70;59.70;;;;;;5005529;28;20025;-76
2022/07/18 04:38:33;;;;;;;2.22;0.50;;;17.40;61.40;;;;;;5020719;28;20506;-78
2022/07/18 04:41:01;;;;;;;1.73;0.52;;;17.20;60.80;;;;;;5020335;28;20029;-73
2022/07/18 04:43:28;;;;;;;4.43;0.70;;;17.10;60.90;;;;;;5008831;28;20030;-73
2022/07/18 04:45:56;;;;;;;3.90;0.70;;;16.90;62.40;;;;;;5001612;28;20025;-73
2022/07/18 04:48:23;;;;;;;2.80;0.50;;;16.80;61.40;;;;;;5007963;28;20269;-78
2022/07/18 04:50:51;;;;;;;1.08;0.52;;;16.70;62.10;;;;;;5013333;28;20124;-74
2022/07/18 04:53:18;;;;;;;2.30;0.63;;;16.60;61.50;;;;;;5013249;28;20026;-80
2022/07/18 04:55:46;;;;;;;2.53;0.50;;;16.60;61.00;;;;;;5005902;28;20422;-77
2022/07/18 04:58:13;;;;;;;3.30;0.60;;;16.50;61.60;;;;;;5018344;28;20042;-77
2022/07/18 05:00:41;;;;;;;1.48;0.77;;;16.40;60.50;;;;;;5024329;28;20026;-76
2022/07/18 05:03:08;;;;;;;2.25;0.65;;;16.30;60.20;;;;;;5019771;28;20092;-76
2022/07/18 05:05:35;;;;;;;1.70;0.65;;;16.20;60.10;;;;;;5024421;28;20040;-74
2022/07/18 05:08:03;;;;;;;2.97;0.50;;;16.30;60.10;;;;;;5025263;28;20036;-72
2022/07/18 05:10:31;;;;;;;2.60;0.73;;;16.30;60.10;;;;;;5010203;28;20361;-74
2022/07/18 05:12:58;;;;;;;1.38;0.57;;;16.40;60.60;;;;;;5013102;28;20033;-76
2022/07/18 05:15:26;;;;;;;0.70;0.40;;;16.30;59.60;;;;;;5014242;28;20010;-73
2022/07/18 05:17:54;;;;;;;0.90;0.50;;;16.30;59.40;;;;;;5005085;28;21051;-72
2022/07/18 05:20:23;;;;;;;3.05;0.50;;;16.30;60.00;;;;;;5005250;28;20490;-74
2022/07/18 05:22:51;;;;;;;3.17;0.73;;;16.40;59.90;;;;;;5029759;28;20136;-71
2022/07/18 05:25:19;;;;;;;1.95;0.60;;;16.40;61.50;;;;;;5005093;28;20022;-71
2022/07/18 05:27:47;;;;;;;3.28;0.50;;;16.40;64.10;;;;;;5004344;28;20026;-71
2022/07/18 05:30:14;;;;;;;0.98;0.50;;;16.50;63.30;;;;;;5020708;28;20030;-70
2022/07/18 05:32:43;;;;;;;2.00;0.40;;;16.50;63.30;;;;;;4984441;28;20475;-73
2022/07/18 05:35:11;;;;;;;3.13;0.57;;;16.50;61.40;;;;;;4990942;28;20022;-74
2022/07/18 05:37:39;;;;;;;1.80;0.60;;;16.50;63.40;;;;;;5022250;28;20032;-74
2022/07/18 05:40:09;;;;;;;2.58;0.70;;;16.60;61.70;;;;;;5020816;28;20013;-71
2022/07/18 05:42:37;;;;;;;1.15;0.40;;;16.60;63.30;;;;;;5023688;28;20030;-71
2022/07/18 05:45:05;;;;;;;1.10;0.40;;;16.60;63.20;;;;;;5021917;28;20483;-74
2022/07/18 05:47:33;;;;;;;1.42;0.47;;;16.70;63.30;;;;;;5003775;28;20347;-73
2022/07/18 05:50:00;;;;;;;2.20;0.80;;;16.80;62.90;;;;;;5004204;28;20037;-77
2022/07/18 05:52:27;;;;;;;2.47;0.70;;;16.80;63.80;;;;;;5005423;28;20372;-71
2022/07/18 05:54:55;;;;;;;0.82;0.50;;;16.90;63.90;;;;;;5033155;28;20084;-68
2022/07/18 05:57:22;;;;;;;2.15;0.50;;;17.10;63.20;;;;;;5000820;28;20596;-69
2022/07/18 05:59:49;;;;;;;1.50;0.50;;;17.20;63.30;;;;;;5003486;28;20018;-68
2022/07/18 06:02:17;;;;;;;1.65;0.50;;;17.30;62.30;;;;;;5004369;28;20028;-70
2022/07/18 06:04:44;;;;;;;2.45;0.60;;;17.40;62.50;;;;;;5001080;28;20025;-72
2022/07/18 06:07:11;;;;;;;1.25;0.50;;;17.70;62.10;;;;;;5004967;28;20524;-71
2022/07/18 06:09:39;;;;;;;1.25;0.40;;;18.10;61.30;;;;;;5002886;28;20048;-77
2022/07/18 06:12:07;;;;;;;1.42;0.47;;;18.30;60.10;;;;;;5002005;28;20078;-71
2022/07/18 06:14:34;;;;;;;1.30;0.50;;;18.20;59.90;;;;;;5002233;28;20550;-72
2022/07/18 06:17:02;;;;;;;3.03;0.60;;;18.10;60.80;;;;;;5002237;28;20809;-72
2022/07/18 06:19:29;;;;;;;1.63;0.57;;;18.00;60.60;;;;;;4996878;28;20030;-72
2022/07/18 06:21:56;;;;;;;1.02;0.50;;;18.10;61.20;;;;;;5000952;28;20037;-71
2022/07/18 06:24:24;;;;;;;3.90;0.70;;;18.10;60.00;;;;;;5002272;28;20029;-78
2022/07/18 06:26:51;;;;;;;1.88;0.60;;;17.90;60.80;;;;;;5000865;28;20037;-77
2022/07/18 06:29:19;;;;;;;1.52;0.57;;;17.50;61.60;;;;;;5002765;28;20029;-75
2022/07/18 06:31:46;;;;;;;2.15;0.73;;;17.00;61.40;;;;;;5002290;28;20026;-73
2022/07/18 06:34:14;;;;;;;3.10;0.80;;;16.50;63.30;;;;;;5019709;28;20029;-74
2022/07/18 06:36:41;;;;;;;2.58;0.50;;;16.20;64.20;;;;;;5021528;28;20028;-75
2022/07/18 06:39:10;;;;;;;3.28;0.50;;;15.90;64.80;;;;;;5019582;28;20374;-74
2022/07/18 06:41:39;;;;;;;2.38;0.60;;;15.60;64.80;;;;;;5013962;28;20083;-73
2022/07/18 06:44:06;;;;;;;1.33;0.68;;;15.30;65.50;;;;;;5005022;28;20022;-71
2022/07/18 06:46:36;;;;;;;1.50;0.50;;;15.10;65.80;;;;;;5020741;28;20025;-73
2022/07/18 06:49:04;;;;;;;2.85;0.60;;;14.90;66.90;;;;;;5022346;28;20033;-73
2022/07/18 06:51:32;;;;;;;2.47;0.60;;;14.80;67.10;;;;;;5001964;28;20024;-74
2022/07/18 06:53:59;;;;;;;2.85;0.65;;;14.60;66.70;;;;;;4997269;28;20056;-71
2022/07/18 06:56:27;;;;;;;2.08;0.88;;;14.50;67.00;;;;;;5001056;28;20108;-74
2022/07/18 06:58:55;;;;;;;1.92;0.80;;;14.30;67.20;;;;;;5000680;28;20054;-74
2022/07/18 07:01:23;;;;;;;2.22;0.70;;;14.20;67.70;;;;;;5001288;28;20059;-73
2022/07/18 07:03:51;;;;;;;3.47;0.90;;;14.10;68.10;;;;;;4999446;28;20510;-75
2022/07/18 07:06:18;;;;;;;2.00;0.98;;;14.00;68.40;;;;;;5000478;28;20535;-72
2022/07/18 07:08:45;;;;;;;2.47;0.93;;;14.00;68.50;;;;;;5003174;28;20030;-72
2022/07/18 07:11:13;;;;;;;2.47;0.80;;;13.80;68.60;;;;;;5021523;28;20017;-76
2022/07/18 07:13:40;;;;;;;1.80;0.88;;;13.70;69.10;;;;;;5002044;28;20033;-78
2022/07/18 07:16:08;;;;;;;3.72;0.90;;;13.70;69.50;;;;;;4999884;28;20028;-74
2022/07/18 07:18:35;;;;;;;1.90;0.77;;;13.60;69.70;;;;;;5001621;28;20037;-74
2022/07/18 07:21:02;;;;;;;3.55;0.80;;;13.60;70.60;;;;;;5000595;28;20719;-73
2022/07/18 07:23:30;;;;;;;2.38;0.90;;;13.50;70.30;;;;;;5016510;28;20021;-76
2022/07/18 07:25:57;;;;;;;2.72;1.08;;;13.40;70.80;;;;;;5020702;28;20338;-77
2022/07/18 07:28:25;;;;;;;1.73;0.90;;;13.30;71.10;;;;;;5021629;28;20033;-77
2022/07/18 07:30:55;;;;;;;3.17;1.00;;;13.20;71.80;;;;;;5015840;28;20033;-74
2022/07/18 07:33:23;;;;;;;1.75;0.88;;;13.20;73.20;;;;;;5000316;28;20022;-77
2022/07/18 07:35:51;;;;;;;4.78;1.77;;;13.10;72.80;;;;;;5015441;28;20037;-71
2022/07/18 07:38:18;;;;;;;3.50;1.00;;;13.00;72.80;;;;;;4996602;28;20129;-71
2022/07/18 07:40:51;;;;;;;2.33;0.90;;;12.90;73.20;;;;;;4999091;28;20489;-72
2022/07/18 07:43:19;;;;;;;2.53;0.88;;;12.90;72.70;;;;;;4999679;28;20030;-75
2022/07/18 07:45:52;;;;;;;3.35;1.35;;;12.90;73.20;;;;;;5002160;28;20030;-70
2022/07/18 07:48:20;;;;;;;1.35;0.82;;;12.80;74.00;;;;;;5019719;28;20034;-76
2022/07/18 07:50:48;;;;;;;12.00;6.15;;;12.70;74.00;;;;;;5014375;28;20329;-76
2022/07/18 07:53:15;;;;;;;7.07;2.17;;;12.80;74.20;;;;;;5010526;28;20076;-71
2022/07/18 07:55:42;;;;;;;9.15;7.00;;;12.70;74.20;;;;;;5001785;28;20108;-75
2022/07/18 07:58:11;;;;;;;9.13;7.10;;;12.60;74.60;;;;;;5001002;28;20981;-77
2022/07/18 08:00:39;;;;;;;5.57;3.00;;;12.50;75.30;;;;;;4999195;28;20022;-73
2022/07/18 08:03:08;;;;;;;4.70;2.58;;;12.50;74.80;;;;;;5001564;28;20030;-73
2022/07/18 08:05:38;;;;;;;6.78;4.53;;;12.40;75.10;;;;;;4999273;28;20029;-72
2022/07/18 08:08:06;;;;;;;9.85;4.63;;;12.30;74.70;;;;;;5027709;28;20249;-75
2022/07/18 08:10:34;;;;;;;8.13;4.53;;;12.30;75.70;;;;;;5000977;28;20029;-71
2022/07/18 08:13:05;;;;;;;7.10;5.35;;;12.30;76.60;;;;;;5000381;28;20091;-72
2022/07/18 08:15:33;;;;;;;5.70;3.42;;;12.30;76.40;;;;;;5001979;28;20115;-71
2022/07/18 08:18:00;;;;;;;7.35;3.40;;;12.30;76.30;;;;;;5000398;28;20507;-77
2022/07/18 08:20:28;;;;;;;7.53;3.35;;;12.20;76.80;;;;;;5000631;28;20029;-72
2022/07/18 08:23:07;;;;;;;5.90;2.42;;;12.20;77.00;;;;;;4999276;28;20037;-72
2022/07/18 08:25:37;;;;;;;4.85;3.50;;;12.10;77.60;;;;;;5007574;28;20033;-73
2022/07/18 08:28:05;;;;;;;6.78;4.57;;;12.00;78.60;;;;;;5020872;28;20055;-70
2022/07/18 08:30:33;;;;;;;9.50;6.72;;;11.90;79.60;;;;;;5025178;28;20017;-72
2022/07/18 08:33:01;;;;;;;15.10;9.32;;;11.90;79.90;;;;;;5022386;28;20125;-73
2022/07/18 08:35:30;;;;;;;35.67;31.20;;;11.90;79.60;;;;;;5015869;28;20026;-73
2022/07/18 08:37:58;;;;;;;10.48;5.25;;;11.90;80.20;;;;;;5004260;28;20021;-73
2022/07/18 08:40:26;;;;;;;8.18;4.80;;;11.90;78.90;;;;;;5004601;28;20049;-72
2022/07/18 08:42:54;;;;;;;7.22;4.30;;;12.00;79.80;;;;;;5004615;28;20028;-73
2022/07/18 08:45:23;;;;;;;8.30;4.43;;;12.00;80.00;;;;;;5011619;28;20032;-72
2022/07/18 08:47:52;;;;;;;6.68;2.90;;;12.00;78.30;;;;;;5024486;28;20022;-72
2022/07/18 08:50:20;;;;;;;8.60;4.30;;;12.00;78.30;;;;;;5024692;28;20021;-74
2022/07/18 08:52:48;;;;;;;8.15;5.05;;;12.00;78.30;;;;;;5022286;28;20466;-72
2022/07/18 08:55:16;;;;;;;19.42;13.32;;;12.00;78.30;;;;;;5022039;28;20367;-74
2022/07/18 08:57:43;;;;;;;13.10;9.27;;;12.00;78.40;;;;;;5012158;28;20041;-73
2022/07/18 09:00:11;;;;;;;28.95;21.77;;;12.10;78.60;;;;;;5003041;28;20370;-72
2022/07/18 09:02:39;;;;;;;19.52;10.07;;;12.00;78.10;;;;;;5005172;28;20025;-72
2022/07/18 09:05:17;;;;;;;8.57;3.47;;;12.00;77.60;;;;;;5023638;28;20021;-71
2022/07/18 09:07:45;;;;;;;16.77;11.48;;;11.90;77.80;;;;;;5023763;28;20025;-73
2022/07/18 09:10:12;;;;;;;21.33;13.52;;;11.90;78.00;;;;;;5012297;28;20029;-72
2022/07/18 09:12:55;;;;;;;43.20;32.08;;;11.80;77.80;;;;;;5021731;28;20084;-73
2022/07/18 09:15:22;;;;;;;14.43;10.05;;;11.70;77.80;;;;;;5023761;28;20477;-74
2022/07/18 09:17:50;;;;;;;15.88;8.88;;;11.70;78.00;;;;;;5022728;28;20768;-72
2022/07/18 09:20:18;;;;;;;16.60;10.63;;;11.60;77.80;;;;;;5017932;28;20506;-74
2022/07/18 09:22:49;;;;;;;12.02;5.10;;;11.60;77.90;;;;;;5003648;28;20041;-74
2022/07/18 09:25:21;;;;;;;16.83;13.10;;;11.60;78.20;;;;;;5004218;28;20691;-75
2022/07/18 09:27:51;;;;;;;8.27;5.30;;;11.60;78.80;;;;;;5000572;28;20449;-74
2022/07/18 09:30:28;;;;;;;14.43;11.45;;;11.50;79.00;;;;;;5002398;28;20065;-74
2022/07/18 09:33:08;;;;;;;6.25;3.92;;;11.50;78.90;;;;;;5012910;28;20180;-73
2022/07/18 09:35:42;;;;;;;8.07;4.72;;;11.50;78.90;;;;;;5001633;28;20201;-73
2022/07/18 09:38:12;;;;;;;6.38;3.47;;;11.40;79.60;;;;;;5002284;28;20030;-72
2022/07/18 09:40:50;;;;;;;5.20;2.50;;;11.40;79.60;;;;;;5000812;28;20030;-73
2022/07/18 09:43:20;;;;;;;3.05;1.60;;;11.30;79.80;;;;;;5003634;28;20034;-73
2022/07/18 09:45:50;;;;;;;5.05;2.55;;;11.30;80.20;;;;;;5016762;28;20801;-74
2022/07/18 09:48:20;;;;;;;4.95;3.05;;;11.30;79.60;;;;;;5002512;28;20038;-73
2022/07/18 09:50:58;;;;;;;2.85;1.70;;;11.30;80.10;;;;;;5002664;28;20021;-73
2022/07/18 09:53:36;;;;;;;7.60;5.20;;;11.30;79.60;;;;;;5002203;28;20116;-73
2022/07/18 09:56:06;;;;;;;4.70;3.38;;;11.30;79.70;;;;;;5002061;28;20022;-73
2022/07/18 09:58:36;;;;;;;6.63;3.83;;;11.30;79.90;;;;;;4999792;28;20419;-72
2022/07/18 10:01:06;;;;;;;11.27;7.43;;;11.20;80.60;;;;;;5000045;28;20482;-72
2022/07/18 10:03:34;;;;;;;5.15;2.58;;;11.20;81.00;;;;;;5001741;28;20022;-73
2022/07/18 10:06:02;;;;;;;6.93;3.85;;;11.20;80.40;;;;;;5012030;28;20030;-72
2022/07/18 10:08:32;;;;;;;6.07;3.63;;;11.20;79.90;;;;;;5004766;28;20022;-73
2022/07/18 10:11:01;;;;;;;3.35;1.77;;;11.20;80.00;;;;;;5001573;28;20497;-72
2022/07/18 10:13:30;;;;;;;4.70;2.47;;;11.20;81.00;;;;;;4999743;28;20415;-72
2022/07/18 10:15:58;;;;;;;3.92;1.58;;;11.20;80.60;;;;;;5001977;28;20056;-74
2022/07/18 10:18:29;;;;;;;2.50;1.50;;;11.10;82.10;;;;;;5000615;28;20458;-72
2022/07/18 10:21:00;;;;;;;4.05;1.90;;;11.10;81.10;;;;;;5000965;28;20638;-74
2022/07/18 10:23:33;;;;;;;9.82;4.35;;;11.00;80.90;;;;;;5002214;28;20098;-74
2022/07/18 10:26:21;;;;;;;9.15;4.72;;;11.00;81.60;;;;;;5001304;28;20056;-73
2022/07/18 10:28:59;;;;;;;5.80;2.40;;;11.00;82.20;;;;;;5002717;28;20145;-74
2022/07/18 10:31:42;;;;;;;4.30;2.40;;;10.80;82.30;;;;;;5000685;28;20033;-73
2022/07/18 10:34:12;;;;;;;6.43;3.08;;;10.80;82.00;;;;;;5000812;28;20034;-73
2022/07/18 10:36:51;;;;;;;4.97;3.00;;;10.80;82.30;;;;;;5003638;28;20030;-73
2022/07/18 10:39:23;;;;;;;3.75;2.13;;;10.70;82.80;;;;;;5003267;28;20072;-73
2022/07/18 10:41:54;;;;;;;6.45;3.45;;;10.60;82.20;;;;;;5008024;28;20018;-73
2022/07/18 10:44:30;;;;;;;5.68;1.98;;;10.60;83.20;;;;;;5021101;28;20026;-73
2022/07/18 10:47:23;;;;;;;12.07;8.25;;;10.60;82.30;;;;;;5022682;28;20025;-73
2022/07/18 10:49:54;;;;;;;6.25;3.45;;;10.60;82.90;;;;;;5021811;28;20064;-73
2022/07/18 10:52:27;;;;;;;6.05;2.85;;;10.60;83.80;;;;;;5020372;28;20053;-74
2022/07/18 10:57:39;;;;;;;5.05;3.10;;;10.60;83.60;;;;;;5022974;28;20037;-72
2022/07/18 11:00:13;;;;;;;13.85;8.30;;;10.50;84.50;;;;;;5005542;28;20030;-72
2022/07/18 11:02:47;;;;;;;35.38;24.38;;;10.50;84.10;;;;;;5002914;28;20018;-72
2022/07/18 11:05:24;;;;;;;12.60;8.80;;;10.50;84.30;;;;;;5002899;28;20072;-73
2022/07/18 11:08:05;;;;;;;4.95;2.80;;;10.50;83.90;;;;;;5002135;28;20029;-73
2022/07/18 11:10:46;;;;;;;12.45;8.05;;;10.50;84.20;;;;;;5002624;28;20475;-74
2022/07/18 11:13:28;;;;;;;6.60;3.05;;;10.50;84.20;;;;;;5002756;28;20108;-74
2022/07/18 11:16:18;;;;;;;29.80;20.93;;;10.50;84.70;;;;;;5001637;28;20022;-74
2022/07/18 11:18:45;;;;;;;13.02;8.13;;;10.50;85.40;;;;;;5013233;28;20030;-73
2022/07/18 11:21:33;;;;;;;5.13;2.00;;;10.50;85.60;;;;;;5018718;28;20022;-73
2022/07/18 11:24:09;;;;;;;6.28;2.40;;;10.50;84.00;;;;;;5002091;28;20044;-73
2022/07/18 11:26:39;;;;;;;5.80;2.47;;;10.60;85.40;;;;;;5002657;28;20032;-73
2022/07/18 11:29:11;;;;;;;6.90;1.95;;;10.60;85.90;;;;;;5002194;28;20076;-75
2022/07/18 11:31:59;;;;;;;3.25;1.80;;;10.60;84.80;;;;;;5021783;28;20025;-73
2022/07/18 11:34:27;;;;;;;4.35;1.75;;;10.60;85.10;;;;;;5021708;28;20037;-73
2022/07/18 11:36:54;;;;;;;3.40;1.70;;;10.60;85.30;;;;;;5022056;28;20022;-74
2022/07/18 11:39:33;;;;;;;5.97;2.35;;;10.60;84.80;;;;;;5022421;28;20113;-72
2022/07/18 11:42:01;;;;;;;5.18;2.03;;;10.50;85.40;;;;;;5013016;28;20104;-73
2022/07/18 11:44:29;;;;;;;6.70;2.47;;;10.50;86.20;;;;;;5001668;28;20026;-73
2022/07/18 11:47:10;;;;;;;5.95;2.00;;;10.50;85.60;;;;;;5001623;28;20022;-74
2022/07/18 11:49:38;;;;;;;5.25;2.45;;;10.40;86.40;;;;;;5007436;28;20030;-72
2022/07/18 11:52:06;;;;;;;5.20;1.98;;;10.40;86.70;;;;;;5021080;28;20061;-74
2022/07/18 11:54:34;;;;;;;3.67;2.25;;;10.40;86.70;;;;;;5006950;28;20044;-72
2022/07/18 11:57:02;;;;;;;4.68;2.45;;;10.40;86.60;;;;;;5001451;28;20045;-74
2022/07/18 11:59:41;;;;;;;5.50;3.08;;;10.40;86.80;;;;;;5001647;28;20022;-76
2022/07/18 12:02:10;;;;;;;5.35;2.25;;;10.40;87.00;;;;;;5001750;28;20493;-72
2022/07/18 12:04:39;;;;;;;5.03;2.38;;;10.40;87.00;;;;;;5001863;28;20030;-74
2022/07/18 12:07:18;;;;;;;5.72;2.50;;;10.40;87.50;;;;;;5021480;28;20025;-73
2022/07/18 12:09:46;;;;;;;5.03;2.13;;;10.40;87.00;;;;;;5021352;28;20041;-72
2022/07/18 12:12:15;;;;;;;4.22;2.55;;;10.40;87.00;;;;;;5021224;28;20101;-72
2022/07/18 12:14:43;;;;;;;6.93;3.17;;;10.50;87.30;;;;;;5021427;28;20025;-72
2022/07/18 12:17:10;;;;;;;8.65;6.22;;;10.40;87.00;;;;;;5018877;28;20061;-72
2022/07/18 12:19:44;;;;;;;7.70;4.45;;;10.50;87.00;;;;;;5001600;28;20022;-74
2022/07/18 12:22:12;;;;;;;4.82;3.28;;;10.60;87.30;;;;;;5001412;28;20084;-73
2022/07/18 12:24:50;;;;;;;4.75;2.85;;;10.60;87.60;;;;;;5001676;28;20018;-73
2022/07/18 12:27:20;;;;;;;4.82;2.28;;;10.60;86.40;;;;;;5001547;28;20026;-74
2022/07/18 12:30:14;;;;;;;4.55;2.38;;;10.60;86.40;;;;;;5008844;28;20026;-73
2022/07/18 12:32:47;;;;;;;3.58;1.88;;;10.50;87.50;;;;;;5019924;28;20091;-74
2022/07/18 12:35:22;;;;;;;5.95;2.08;;;10.50;87.10;;;;;;5021181;28;20021;-73
2022/07/18 12:37:56;;;;;;;4.22;1.90;;;10.50;86.60;;;;;;5021370;28;20024;-72
2022/07/18 12:40:25;;;;;;;5.57;2.60;;;10.60;87.20;;;;;;5020786;28;20053;-72
2022/07/18 12:43:04;;;;;;;5.18;2.40;;;10.60;87.50;;;;;;5004760;28;20054;-72
2022/07/18 12:45:31;;;;;;;6.20;4.05;;;10.60;87.00;;;;;;5020418;28;20057;-73
2022/07/18 12:47:58;;;;;;;7.30;3.15;;;10.50;87.30;;;;;;5021768;28;20090;-72
2022/07/18 12:50:26;;;;;;;10.32;5.18;;;10.50;87.30;;;;;;5020906;28;20018;-72
2022/07/18 12:52:53;;;;;;;8.93;5.63;;;10.50;87.00;;;;;;5019402;28;20382;-72
2022/07/18 12:55:22;;;;;;;4.47;2.30;;;10.50;87.10;;;;;;5000905;28;20088;-72
2022/07/18 12:57:50;;;;;;;6.78;4.63;;;10.40;87.10;;;;;;5001303;28;20085;-73